Decoded Metar for SARF (FORMOSA in ARGENTINA) (IATA:FMA) | Meteo·Mobile Aviation Weather
aviador You're here:

SARF Decoded Metar

FORMOSA in ARGENTINA
Report Time2018-11-20 17:00:00
UTC Time2018-11-20 17:43:25
Flight Rules vfr VFR
Wind010° at 04 kt
W.Decomp.*RWY 04: 3.8 kt HW 1.2 kt LCW
Visibility9999 m
Phenomena:N/A
Clouds:N/A
Expected CloudBase > 4,800 ft AGL from Temp-Dew spread
CeilingNone
Temp31°C (ISA +16)
Dew Point19°C (49% RH)
Heat Index32.4°C
QNH1013 hPa
Density Alt2,362 ft
Elevation197 ft
Report Wrong Elevation
Raw Report
METAR SARF 201700Z 01004KT CAVOK 31/19 Q1013=

Extra information for SARF:More info

Metar Taf Metar & Taf Last 4 Metars F.Rules Stats Wind Profile Meteogram Temp Stats Airport Information Weather charts Add Link Nearby VenuesMetar ALERT Operation Metar Decoded Social comments